createdAt,value
2023-05-19T00:02:33.741Z,1.58
2023-05-19T00:05:40.781Z,1.80
2023-05-19T00:08:43.114Z,1.70
2023-05-19T00:11:45.674Z,2.40
2023-05-19T00:14:48.155Z,2.12
2023-05-19T00:17:52.402Z,1.80
2023-05-19T00:20:54.690Z,2.20
2023-05-19T00:23:57.545Z,2.12
2023-05-19T00:26:59.798Z,2.12
2023-05-19T00:30:02.104Z,1.85
2023-05-19T00:33:04.383Z,1.87
2023-05-19T00:36:07.106Z,1.90
2023-05-19T00:39:09.341Z,2.45
2023-05-19T00:42:11.677Z,1.98
2023-05-19T00:45:13.896Z,2.45
2023-05-19T00:48:16.140Z,2.37
2023-05-19T00:51:18.612Z,2.30
2023-05-19T00:54:21.353Z,2.30
2023-05-19T00:57:23.888Z,2.28
2023-05-19T01:00:26.130Z,2.28
2023-05-19T01:03:31.127Z,1.98
2023-05-19T01:06:33.613Z,2.58
2023-05-19T01:09:36.244Z,2.15
2023-05-19T01:12:39.907Z,2.45
2023-05-19T01:16:13.181Z,3.00
2023-05-19T01:19:51.086Z,2.42
2023-05-19T01:23:21.497Z,2.70
2023-05-19T01:26:53.924Z,3.42
2023-05-19T01:30:23.386Z,2.60
2023-05-19T01:33:27.357Z,2.80
2023-05-19T01:36:31.978Z,3.55
2023-05-19T01:39:35.030Z,3.10
2023-05-19T01:42:40.036Z,2.97
2023-05-19T01:45:42.775Z,3.65
2023-05-19T01:48:45.519Z,3.25
2023-05-19T01:51:50.036Z,2.70
2023-05-19T01:54:52.258Z,2.90
2023-05-19T01:57:57.457Z,3.62
2023-05-19T02:01:11.648Z,4.07
2023-05-19T02:04:18.542Z,3.37
2023-05-19T02:07:42.840Z,3.40
2023-05-19T02:10:53.543Z,3.92
2023-05-19T02:13:57.022Z,3.08
2023-05-19T02:16:59.800Z,3.30
2023-05-19T02:20:04.594Z,2.55
2023-05-19T02:23:07.149Z,3.08
2023-05-19T02:26:09.448Z,2.67
2023-05-19T02:29:12.152Z,3.35
2023-05-19T02:32:15.014Z,3.20
2023-05-19T02:35:17.670Z,3.35
2023-05-19T02:38:19.973Z,3.30
2023-05-19T02:41:22.261Z,3.20
2023-05-19T02:44:24.527Z,3.20
2023-05-19T02:47:26.759Z,2.97
2023-05-19T02:50:28.976Z,2.78
2023-05-19T02:53:32.363Z,2.80
2023-05-19T02:56:34.654Z,2.97
2023-05-19T02:59:37.351Z,2.70
2023-05-19T03:02:39.937Z,3.00
2023-05-19T03:05:42.695Z,3.20
2023-05-19T03:08:45.121Z,2.78
2023-05-19T03:11:47.339Z,3.50
2023-05-19T03:14:49.653Z,3.37
2023-05-19T03:17:52.057Z,3.10
2023-05-19T03:20:54.296Z,2.75
2023-05-19T03:23:56.638Z,3.85
2023-05-19T03:26:58.875Z,3.08
2023-05-19T03:30:01.218Z,2.70
2023-05-19T03:33:03.651Z,2.72
2023-05-19T03:36:06.483Z,2.92
2023-05-19T03:39:09.481Z,3.40
2023-05-19T03:42:11.713Z,2.78
2023-05-19T03:45:14.272Z,3.50
2023-05-19T03:48:17.950Z,3.72
2023-05-19T03:51:21.597Z,3.53
2023-05-19T03:54:23.856Z,3.33
2023-05-19T03:57:26.188Z,4.10
2023-05-19T04:00:28.470Z,3.60
2023-05-19T04:03:30.835Z,3.58
2023-05-19T04:06:33.972Z,3.22
2023-05-19T04:09:37.689Z,4.03
2023-05-19T04:12:40.054Z,4.25
2023-05-19T04:15:42.410Z,3.92
2023-05-19T04:18:46.413Z,3.95
2023-05-19T04:21:48.824Z,3.62
2023-05-19T04:24:52.346Z,4.20
2023-05-19T04:27:57.728Z,3.45
2023-05-19T04:31:00.337Z,3.83
2023-05-19T04:34:02.683Z,4.05
2023-05-19T04:37:07.126Z,3.50
2023-05-19T04:40:11.186Z,4.05
2023-05-19T04:43:13.479Z,3.37
2023-05-19T04:46:15.742Z,3.78
2023-05-19T04:49:19.237Z,4.25
2023-05-19T04:52:22.264Z,3.37
2023-05-19T04:55:24.490Z,3.15
2023-05-19T04:58:27.566Z,2.95
2023-05-19T05:01:31.380Z,3.75
2023-05-19T05:04:33.893Z,3.00
2023-05-19T05:07:36.540Z,3.70
2023-05-19T05:10:38.928Z,3.67
2023-05-19T05:13:41.439Z,3.60
2023-05-19T05:16:44.114Z,4.15
2023-05-19T05:19:47.071Z,3.08
2023-05-19T05:22:49.611Z,3.65
2023-05-19T05:25:52.040Z,3.62
2023-05-19T05:28:54.280Z,2.87
2023-05-19T05:31:56.510Z,2.72
2023-05-19T05:34:59.021Z,3.05
2023-05-19T05:38:01.829Z,2.22
2023-05-19T05:41:04.220Z,2.55
2023-05-19T05:44:06.583Z,2.55
2023-05-19T05:47:09.160Z,2.47
2023-05-19T05:50:13.270Z,3.03
2023-05-19T05:53:19.397Z,2.40
2023-05-19T05:56:22.174Z,2.17
2023-05-19T05:59:24.481Z,2.08
2023-05-19T06:02:28.280Z,2.00
2023-05-19T06:05:30.751Z,2.22
2023-05-19T06:08:33.103Z,2.12
2023-05-19T06:11:35.348Z,2.22
2023-05-19T06:14:37.672Z,2.15
2023-05-19T06:17:40.030Z,2.20
2023-05-19T06:20:42.313Z,1.87
2023-05-19T06:23:44.605Z,1.58
2023-05-19T06:26:46.799Z,2.00
2023-05-19T06:29:49.133Z,2.08
2023-05-19T06:32:51.551Z,1.60
2023-05-19T06:35:53.939Z,1.35
2023-05-19T06:38:56.365Z,1.75
2023-05-19T06:41:58.636Z,1.70
2023-05-19T06:45:00.857Z,1.85
2023-05-19T06:48:03.567Z,2.00
2023-05-19T06:51:05.918Z,2.10
2023-05-19T06:54:11.041Z,2.20
2023-05-19T06:57:13.301Z,1.95
2023-05-19T07:00:19.274Z,2.20
2023-05-19T07:03:22.855Z,1.90
2023-05-19T07:06:25.134Z,2.20
2023-05-19T07:09:27.364Z,2.42
2023-05-19T07:12:29.601Z,2.30
2023-05-19T07:15:31.870Z,2.55
2023-05-19T07:18:34.027Z,2.65
2023-05-19T07:21:36.307Z,2.55
2023-05-19T07:24:38.527Z,2.08
2023-05-19T07:27:40.909Z,2.42
2023-05-19T07:30:43.349Z,2.62
2023-05-19T07:33:45.583Z,2.05
2023-05-19T07:36:47.903Z,2.20
2023-05-19T07:39:50.209Z,2.20
2023-05-19T07:42:52.461Z,2.17
2023-05-19T07:45:56.379Z,2.17
2023-05-19T07:48:58.709Z,2.10
2023-05-19T07:52:01.287Z,2.10
2023-05-19T07:55:03.703Z,2.53
2023-05-19T07:58:05.994Z,2.20
2023-05-19T08:01:08.248Z,2.17
2023-05-19T08:04:12.813Z,2.28
2023-05-19T08:07:15.671Z,2.50
2023-05-19T08:10:18.114Z,1.90
2023-05-19T08:13:20.343Z,2.60
2023-05-19T08:16:22.942Z,2.12
2023-05-19T08:19:25.446Z,2.33
2023-05-19T08:22:28.176Z,2.30
2023-05-19T08:25:30.426Z,2.12
2023-05-19T08:28:32.829Z,1.77
2023-05-19T08:31:35.119Z,2.10
2023-05-19T08:34:37.525Z,2.20
2023-05-19T08:37:39.890Z,2.15
2023-05-19T08:40:43.098Z,2.50
2023-05-19T08:43:45.564Z,2.30
2023-05-19T08:46:48.255Z,2.20
2023-05-19T08:49:53.028Z,2.25
2023-05-19T08:53:05.770Z,1.92
2023-05-19T08:56:14.909Z,2.00
2023-05-19T08:59:17.506Z,2.22
2023-05-19T09:02:19.860Z,1.77
2023-05-19T09:05:22.476Z,1.83
2023-05-19T09:08:24.771Z,1.52
2023-05-19T09:11:27.552Z,2.10
2023-05-19T09:14:30.804Z,1.52
2023-05-19T09:17:34.054Z,1.50
2023-05-19T09:20:46.021Z,1.55
2023-05-19T09:23:49.681Z,1.60
2023-05-19T09:26:51.875Z,1.77
2023-05-19T09:29:54.151Z,2.08
2023-05-19T09:32:56.512Z,1.70
2023-05-19T09:35:58.785Z,2.20
2023-05-19T09:39:00.976Z,1.92
2023-05-19T09:42:04.793Z,1.73
2023-05-19T09:45:09.320Z,1.65
2023-05-19T09:48:11.650Z,1.80
2023-05-19T09:51:13.896Z,1.70
2023-05-19T09:54:18.709Z,2.45
2023-05-19T09:57:26.067Z,1.60
2023-05-19T10:00:29.570Z,1.98
2023-05-19T10:03:33.047Z,1.90
2023-05-19T10:06:35.895Z,1.80
2023-05-19T10:09:38.245Z,1.83
2023-05-19T10:12:41.583Z,1.90
2023-05-19T10:15:57.475Z,1.75
2023-05-19T10:19:02.111Z,2.00
2023-05-19T10:22:05.099Z,1.67
2023-05-19T10:25:08.383Z,2.10
2023-05-19T10:28:15.203Z,1.70
2023-05-19T10:31:19.606Z,1.70
2023-05-19T10:34:40.628Z,1.75
2023-05-19T10:37:59.455Z,1.67
2023-05-19T10:41:22.581Z,1.87
2023-05-19T10:44:53.264Z,1.85
2023-05-19T10:47:56.133Z,1.50
2023-05-19T10:50:58.567Z,1.67
2023-05-19T10:54:10.455Z,1.80
2023-05-19T10:57:17.505Z,1.75
2023-05-19T11:00:30.315Z,1.80
2023-05-19T11:03:44.615Z,1.60
2023-05-19T11:06:51.773Z,1.98
2023-05-19T11:09:54.251Z,1.67
2023-05-19T11:12:58.315Z,1.70
2023-05-19T11:16:08.218Z,1.70
2023-05-19T11:19:20.899Z,2.05
2023-05-19T11:22:27.352Z,1.45
2023-05-19T11:25:43.382Z,1.80
2023-05-19T11:28:47.684Z,1.65
2023-05-19T11:31:50.051Z,1.42
2023-05-19T11:34:53.226Z,1.37
2023-05-19T11:37:55.756Z,1.85
2023-05-19T11:40:58.063Z,1.58
2023-05-19T11:44:00.325Z,1.25
2023-05-19T11:47:02.594Z,1.25
2023-05-19T11:50:05.110Z,1.58
2023-05-19T11:53:07.858Z,1.40
2023-05-19T11:56:11.819Z,1.60
2023-05-19T11:59:14.149Z,1.30
2023-05-19T12:02:21.890Z,1.45
2023-05-19T12:05:25.388Z,1.55
2023-05-19T12:08:27.778Z,1.48
2023-05-19T12:11:31.778Z,1.58
2023-05-19T12:14:34.545Z,1.42
2023-05-19T12:17:36.813Z,1.30
2023-05-19T12:20:39.291Z,1.65
2023-05-19T12:23:42.423Z,1.40
2023-05-19T12:26:44.682Z,1.75
2023-05-19T12:29:53.602Z,1.55
2023-05-19T12:32:59.382Z,1.60
2023-05-19T12:36:01.733Z,1.35
2023-05-19T12:39:05.064Z,1.50
2023-05-19T12:42:12.513Z,1.20
2023-05-19T12:45:15.326Z,1.30
2023-05-19T12:48:18.128Z,1.45
2023-05-19T12:51:20.541Z,1.50
2023-05-19T12:54:23.103Z,1.40
2023-05-19T12:57:26.746Z,1.58
2023-05-19T13:00:31.282Z,1.45
2023-05-19T13:03:40.070Z,1.37
2023-05-19T13:06:43.812Z,1.50
2023-05-19T13:09:46.106Z,1.40
2023-05-19T13:12:48.326Z,1.37
2023-05-19T13:15:50.726Z,1.60
2023-05-19T13:18:53.577Z,1.33
2023-05-19T13:21:55.840Z,1.10
2023-05-19T13:25:02.291Z,1.50
2023-05-19T13:28:08.005Z,1.50
2023-05-19T13:31:10.382Z,1.30
2023-05-19T13:34:12.619Z,1.48
2023-05-19T13:37:14.831Z,1.30
2023-05-19T13:40:17.686Z,1.58
2023-05-19T13:43:19.940Z,1.50
2023-05-19T13:46:29.508Z,1.95
2023-05-19T13:49:39.396Z,1.08
2023-05-19T13:52:41.805Z,1.52
2023-05-19T13:55:44.023Z,1.75
2023-05-19T13:58:46.837Z,1.75
2023-05-19T14:01:49.056Z,1.60
2023-05-19T14:04:51.425Z,1.50
2023-05-19T14:07:54.489Z,1.70
2023-05-19T14:10:57.157Z,1.33
2023-05-19T14:13:59.472Z,1.60
2023-05-19T14:17:01.654Z,1.30
2023-05-19T14:20:04.566Z,1.40
2023-05-19T14:23:06.794Z,1.67
2023-05-19T14:26:09.041Z,1.52
2023-05-19T14:29:11.615Z,1.45
2023-05-19T14:32:13.943Z,1.45
2023-05-19T14:35:16.266Z,1.20
2023-05-19T14:38:18.619Z,1.50
2023-05-19T14:41:21.593Z,1.30
2023-05-19T14:44:23.771Z,1.30
2023-05-19T14:47:27.073Z,1.45
2023-05-19T14:50:29.685Z,1.50
2023-05-19T14:53:32.003Z,1.70
2023-05-19T14:56:34.241Z,1.55
2023-05-19T14:59:39.674Z,1.95
2023-05-19T15:02:42.037Z,1.70
2023-05-19T15:05:45.432Z,1.40
2023-05-19T15:08:47.657Z,1.48
2023-05-19T15:11:49.873Z,1.42
2023-05-19T15:14:52.167Z,1.27
2023-05-19T15:17:54.423Z,1.27
2023-05-19T15:20:56.761Z,1.65
2023-05-19T15:23:58.983Z,1.50
2023-05-19T15:27:01.803Z,1.40
2023-05-19T15:30:05.234Z,1.40
2023-05-19T15:33:07.506Z,1.45
2023-05-19T15:36:11.244Z,1.67
2023-05-19T15:39:13.673Z,1.80
2023-05-19T15:42:15.946Z,1.42
2023-05-19T15:45:18.165Z,1.50
2023-05-19T15:48:20.765Z,1.98
2023-05-19T15:51:23.313Z,1.62
2023-05-19T15:54:25.663Z,1.87
2023-05-19T15:57:27.866Z,1.40
2023-05-19T16:00:30.130Z,2.85
2023-05-19T16:03:32.598Z,1.60
2023-05-19T16:06:34.898Z,1.50
2023-05-19T16:09:37.123Z,1.55
2023-05-19T16:12:39.448Z,1.35
2023-05-19T16:15:41.909Z,1.60
2023-05-19T16:18:44.615Z,1.87
2023-05-19T16:21:46.928Z,1.55
2023-05-19T16:24:49.166Z,1.70
2023-05-19T16:27:52.400Z,1.67
2023-05-19T16:31:00.842Z,1.55
2023-05-19T16:34:03.117Z,1.62
2023-05-19T16:37:05.394Z,1.83
2023-05-19T16:40:08.358Z,1.85
2023-05-19T16:43:10.985Z,1.62
2023-05-19T16:46:13.300Z,2.00
2023-05-19T16:49:15.703Z,1.60
2023-05-19T16:52:17.952Z,1.90
2023-05-19T16:55:20.587Z,1.80
2023-05-19T16:58:22.869Z,1.90
2023-05-19T17:01:25.186Z,1.70
2023-05-19T17:04:29.392Z,1.65
2023-05-19T17:07:32.927Z,1.80
2023-05-19T17:10:36.052Z,1.70
2023-05-19T17:13:38.328Z,2.00
2023-05-19T17:16:40.709Z,2.05
2023-05-19T17:19:42.918Z,1.83
2023-05-19T17:22:45.143Z,1.60
2023-05-19T17:25:47.820Z,1.80
2023-05-19T17:28:50.065Z,2.10
2023-05-19T17:31:52.316Z,1.85
2023-05-19T17:34:54.640Z,2.10
2023-05-19T17:37:58.600Z,1.90
2023-05-19T17:41:02.560Z,2.25
2023-05-19T17:44:06.773Z,2.08
2023-05-19T17:47:09.139Z,2.20
2023-05-19T17:50:11.513Z,2.25
2023-05-19T17:53:15.150Z,2.17
2023-05-19T17:56:17.510Z,2.70
2023-05-19T17:59:19.898Z,3.22
2023-05-19T18:02:22.462Z,2.45
2023-05-19T18:05:25.228Z,2.30
2023-05-19T18:08:28.773Z,2.92
2023-05-19T18:11:30.972Z,2.47
2023-05-19T18:14:33.204Z,2.55
2023-05-19T18:17:35.525Z,2.87
2023-05-19T18:20:38.789Z,2.33
2023-05-19T18:23:41.545Z,2.37
2023-05-19T18:26:43.827Z,2.22
2023-05-19T18:29:46.124Z,2.65
2023-05-19T18:32:48.385Z,2.33
2023-05-19T18:35:50.721Z,2.35
2023-05-19T18:38:53.278Z,2.67
2023-05-19T18:41:55.512Z,2.72
2023-05-19T18:44:57.741Z,2.20
2023-05-19T18:47:59.980Z,2.95
2023-05-19T18:51:03.852Z,2.37
2023-05-19T18:54:07.707Z,2.97
2023-05-19T18:57:09.991Z,3.00
2023-05-19T19:00:13.653Z,3.85
2023-05-19T19:03:15.942Z,3.80
2023-05-19T19:06:20.904Z,3.87
2023-05-19T19:09:23.210Z,3.80
2023-05-19T19:12:25.458Z,2.95
2023-05-19T19:15:28.442Z,3.20
2023-05-19T19:18:31.155Z,2.83
2023-05-19T19:21:33.544Z,2.90
2023-05-19T19:24:35.891Z,2.65
2023-05-19T19:27:38.179Z,3.28
2023-05-19T19:30:40.485Z,3.15
2023-05-19T19:33:43.690Z,3.97
2023-05-19T19:36:47.976Z,3.35
2023-05-19T19:39:50.440Z,3.80
2023-05-19T19:42:53.139Z,3.05
2023-05-19T19:46:02.966Z,3.42
2023-05-19T19:49:05.325Z,4.18
2023-05-19T19:52:07.714Z,4.07
2023-05-19T19:55:10.374Z,3.35
2023-05-19T19:58:12.905Z,3.40
2023-05-19T20:01:16.101Z,3.55
2023-05-19T20:04:18.551Z,4.47
2023-05-19T20:07:23.244Z,4.03
2023-05-19T20:10:25.619Z,4.50
2023-05-19T20:13:28.578Z,4.82
2023-05-19T20:16:32.009Z,4.70
2023-05-19T20:19:34.443Z,3.72
2023-05-19T20:22:37.057Z,4.37
2023-05-19T20:25:57.859Z,3.55
2023-05-19T20:29:05.065Z,3.90
2023-05-19T20:32:07.356Z,3.70
2023-05-19T20:35:10.376Z,4.20
2023-05-19T20:38:12.692Z,3.75
2023-05-19T20:41:15.044Z,3.92
2023-05-19T20:44:20.721Z,5.47
2023-05-19T20:47:23.091Z,6.28
2023-05-19T20:50:25.628Z,4.15
2023-05-19T20:53:27.896Z,4.78
2023-05-19T20:56:30.109Z,4.45
2023-05-19T20:59:32.951Z,4.22
2023-05-19T21:02:35.354Z,4.22
2023-05-19T21:05:37.685Z,4.37
2023-05-19T21:08:39.938Z,3.70
2023-05-19T21:11:42.199Z,4.00
2023-05-19T21:14:44.416Z,4.28
2023-05-19T21:17:46.823Z,3.72
2023-05-19T21:20:49.132Z,3.47
2023-05-19T21:23:51.495Z,3.70
2023-05-19T21:26:53.776Z,4.00
2023-05-19T21:29:56.056Z,3.20
2023-05-19T21:32:58.656Z,3.97
2023-05-19T21:36:01.279Z,3.30
2023-05-19T21:39:04.711Z,3.92
2023-05-19T21:42:10.528Z,3.80
2023-05-19T21:45:12.852Z,4.50
2023-05-19T21:48:19.341Z,3.80
2023-05-19T21:51:21.626Z,3.92
2023-05-19T21:54:23.871Z,3.87
2023-05-19T21:57:26.158Z,4.37
2023-05-19T22:00:28.885Z,3.75
2023-05-19T22:03:31.236Z,4.35
2023-05-19T22:06:33.716Z,4.22
2023-05-19T22:09:35.989Z,3.80
2023-05-19T22:12:38.300Z,4.05
2023-05-19T22:15:41.401Z,4.68
2023-05-19T22:18:43.689Z,4.25
2023-05-19T22:21:46.005Z,4.37
2023-05-19T22:24:48.676Z,4.47
2023-05-19T22:27:50.927Z,3.67
2023-05-19T22:30:53.157Z,4.30
2023-05-19T22:33:56.054Z,3.78
2023-05-19T22:36:58.370Z,3.70
2023-05-19T22:40:00.691Z,3.97
2023-05-19T22:43:02.979Z,3.87
2023-05-19T22:46:05.464Z,3.20
2023-05-19T22:49:07.930Z,3.45
2023-05-19T22:52:11.079Z,3.62
2023-05-19T22:55:13.380Z,3.58
2023-05-19T22:58:15.636Z,3.58
2023-05-19T23:01:18.708Z,3.37
2023-05-19T23:04:21.067Z,3.90
2023-05-19T23:07:23.317Z,3.22
2023-05-19T23:10:25.556Z,3.75
2023-05-19T23:13:28.037Z,3.90
2023-05-19T23:16:30.284Z,3.87
2023-05-19T23:19:33.277Z,4.07
2023-05-19T23:22:35.502Z,4.28
2023-05-19T23:25:37.719Z,3.85
2023-05-19T23:28:42.024Z,4.03
2023-05-19T23:31:44.532Z,3.72
2023-05-19T23:34:48.020Z,3.78
2023-05-19T23:37:50.352Z,3.60
2023-05-19T23:40:52.526Z,4.32
2023-05-19T23:43:54.715Z,4.12
2023-05-19T23:46:56.972Z,4.10
2023-05-19T23:49:59.152Z,4.45
2023-05-19T23:53:01.438Z,3.47
2023-05-19T23:56:03.694Z,4.75
2023-05-19T23:59:06.043Z,4.20
